createdAt,value
2019-01-21T00:00:50.208Z,53.90
2019-01-21T00:03:20.756Z,57.60
2019-01-21T00:05:50.677Z,58.63
2019-01-21T00:08:19.557Z,56.20
2019-01-21T00:10:48.354Z,62.07
2019-01-21T00:13:17.162Z,64.07
2019-01-21T00:15:46.040Z,58.37
2019-01-21T00:18:15.071Z,57.27
2019-01-21T00:20:43.881Z,55.27
2019-01-21T00:23:12.673Z,53.20
2019-01-21T00:25:41.605Z,57.43
2019-01-21T00:28:10.475Z,60.73
2019-01-21T00:30:39.279Z,58.67
2019-01-21T00:33:08.101Z,61.53
2019-01-21T00:35:36.927Z,56.23
2019-01-21T00:38:05.753Z,58.20
2019-01-21T00:40:34.546Z,54.53
2019-01-21T00:43:03.353Z,58.40
2019-01-21T00:45:32.173Z,59.13
2019-01-21T00:48:00.971Z,60.50
2019-01-21T00:50:29.792Z,55.73
2019-01-21T00:52:58.623Z,58.87
2019-01-21T00:55:27.433Z,59.83
2019-01-21T00:57:56.247Z,56.07
2019-01-21T01:00:25.503Z,61.33
2019-01-21T01:02:54.311Z,59.23
2019-01-21T01:05:23.113Z,59.30
2019-01-21T01:07:51.991Z,60.37
2019-01-21T01:10:20.818Z,54.93
2019-01-21T01:12:49.630Z,56.97
2019-01-21T01:15:18.467Z,62.33
2019-01-21T01:17:47.274Z,60.13
2019-01-21T01:20:17.146Z,57.30
2019-01-21T01:22:45.972Z,58.33
2019-01-21T01:25:14.847Z,57.97
2019-01-21T01:27:43.648Z,59.10
2019-01-21T01:30:14.408Z,57.63
2019-01-21T01:32:43.215Z,55.23
2019-01-21T01:35:12.575Z,56.90
2019-01-21T01:37:41.440Z,63.73
2019-01-21T01:40:11.506Z,55.40
2019-01-21T01:42:40.316Z,54.23
2019-01-21T01:45:12.284Z,55.87
2019-01-21T01:47:44.905Z,58.13
2019-01-21T01:50:11.612Z,54.90
2019-01-21T01:52:40.432Z,53.90
2019-01-21T01:55:09.710Z,51.20
2019-01-21T01:57:38.502Z,54.77
2019-01-21T02:00:09.104Z,56.50
2019-01-21T02:02:38.061Z,56.00
2019-01-21T02:05:06.854Z,56.30
2019-01-21T02:07:35.667Z,56.13
2019-01-21T02:10:05.544Z,55.10
2019-01-21T02:12:34.440Z,58.53
2019-01-21T02:15:04.608Z,57.20
2019-01-21T02:17:33.489Z,56.80
2019-01-21T02:20:02.293Z,59.93
2019-01-21T02:22:31.205Z,59.33
2019-01-21T02:25:00.095Z,59.80
2019-01-21T02:27:31.111Z,53.37
2019-01-21T02:30:01.602Z,61.63
2019-01-21T02:32:45.250Z,61.20
2019-01-21T02:35:18.501Z,53.37
2019-01-21T02:37:49.001Z,53.10
2019-01-21T02:40:31.754Z,53.80
2019-01-21T02:43:18.903Z,58.93
2019-01-21T02:46:07.649Z,56.87
2019-01-21T02:48:46.830Z,59.50
2019-01-21T02:51:32.615Z,57.57
2019-01-21T02:54:08.709Z,54.73
2019-01-21T02:56:39.153Z,60.27
2019-01-21T02:59:13.467Z,60.77
2019-01-21T03:01:49.891Z,57.37
2019-01-21T03:04:29.185Z,59.53
2019-01-21T03:07:08.896Z,58.77
2019-01-21T03:09:45.267Z,56.23
2019-01-21T03:12:18.881Z,62.07
2019-01-21T03:15:07.405Z,59.83
2019-01-21T03:17:54.396Z,60.30
2019-01-21T03:20:30.520Z,62.60
2019-01-21T03:23:19.716Z,66.97
2019-01-21T03:26:08.194Z,67.20
2019-01-21T03:28:42.026Z,61.00
2019-01-21T03:31:15.129Z,61.47
2019-01-21T03:33:45.861Z,63.27
2019-01-21T03:36:16.282Z,63.17
2019-01-21T03:38:46.751Z,62.20
2019-01-21T03:41:17.180Z,64.83
2019-01-21T03:43:56.441Z,65.30
2019-01-21T03:46:43.316Z,68.77
2019-01-21T03:49:19.667Z,70.90
2019-01-21T03:52:07.953Z,70.60
2019-01-21T03:54:36.790Z,66.33
2019-01-21T03:57:08.293Z,76.43
2019-01-21T03:59:50.997Z,72.17
2019-01-21T04:02:33.594Z,70.50
2019-01-21T04:05:20.534Z,63.73
2019-01-21T04:07:57.717Z,63.87
2019-01-21T04:10:28.170Z,68.27
2019-01-21T04:13:01.539Z,62.53
2019-01-21T04:15:31.998Z,64.80
2019-01-21T04:18:02.429Z,72.47
2019-01-21T04:20:38.825Z,67.40
2019-01-21T04:23:21.097Z,75.97
2019-01-21T04:26:07.969Z,67.53
2019-01-21T04:28:38.420Z,66.73
2019-01-21T04:31:08.858Z,67.87
2019-01-21T04:33:57.709Z,73.43
2019-01-21T04:36:33.750Z,76.90
2019-01-21T04:39:19.290Z,68.33
2019-01-21T04:41:49.802Z,71.93
2019-01-21T04:44:35.292Z,66.80
2019-01-21T04:47:22.177Z,68.73
2019-01-21T04:49:54.256Z,65.87
2019-01-21T04:52:24.691Z,72.40
2019-01-21T04:55:11.616Z,70.63
2019-01-21T04:57:51.260Z,75.27
2019-01-21T05:00:27.532Z,71.43
2019-01-21T05:02:57.960Z,70.60
2019-01-21T05:05:28.412Z,77.87
2019-01-21T05:08:01.817Z,76.13
2019-01-21T05:10:32.326Z,77.67
2019-01-21T05:13:12.208Z,75.90
2019-01-21T05:15:42.645Z,74.67
2019-01-21T05:18:31.346Z,76.17
2019-01-21T05:21:10.664Z,73.83
2019-01-21T05:23:41.106Z,74.67
2019-01-21T05:26:11.567Z,78.30
2019-01-21T05:29:00.509Z,84.13
2019-01-21T05:31:33.660Z,78.63
2019-01-21T05:34:12.959Z,77.70
2019-01-21T05:36:59.841Z,73.63
2019-01-21T05:39:32.940Z,75.17
2019-01-21T05:42:03.398Z,74.37
2019-01-21T05:44:50.316Z,75.77
2019-01-21T05:47:29.953Z,80.63
2019-01-21T05:50:03.361Z,76.73
2019-01-21T05:52:48.863Z,81.90
2019-01-21T05:55:19.303Z,82.37
2019-01-21T05:58:01.978Z,88.63
2019-01-21T06:00:41.416Z,82.87
2019-01-21T06:03:20.636Z,89.33
2019-01-21T06:06:07.440Z,84.50
2019-01-21T06:08:54.321Z,82.97
2019-01-21T06:11:41.639Z,86.60
2019-01-21T06:14:21.318Z,79.30
2019-01-21T06:16:51.756Z,84.17
2019-01-21T06:19:22.209Z,86.43
2019-01-21T06:21:52.657Z,87.00
2019-01-21T06:24:35.093Z,84.67
2019-01-21T06:27:05.523Z,78.97
2019-01-21T06:29:38.916Z,80.80
2019-01-21T06:32:18.537Z,79.20
2019-01-21T06:35:05.898Z,82.97
2019-01-21T06:37:36.336Z,77.67
2019-01-21T06:40:09.455Z,85.60
2019-01-21T06:42:39.951Z,79.03
2019-01-21T06:45:22.410Z,77.90
2019-01-21T06:47:52.883Z,80.97
2019-01-21T06:50:23.389Z,80.10
2019-01-21T06:53:11.773Z,81.13
2019-01-21T06:55:42.198Z,76.53
2019-01-21T06:58:12.671Z,82.27
2019-01-21T07:00:52.091Z,86.30
2019-01-21T07:03:22.540Z,83.03
2019-01-21T07:06:11.118Z,87.30
2019-01-21T07:08:47.526Z,79.93
2019-01-21T07:11:30.209Z,80.63
2019-01-21T07:14:00.657Z,79.53
2019-01-21T07:16:43.404Z,81.00
2019-01-21T07:19:25.773Z,77.30
2019-01-21T07:21:58.919Z,75.33
2019-01-21T07:24:29.368Z,78.50
2019-01-21T07:27:08.524Z,74.13
2019-01-21T07:29:55.567Z,79.03
2019-01-21T07:32:26.015Z,78.20
2019-01-21T07:34:59.376Z,83.97
2019-01-21T07:37:32.822Z,72.97
2019-01-21T07:40:03.248Z,77.37
2019-01-21T07:42:36.698Z,78.53
2019-01-21T07:45:13.355Z,75.53
2019-01-21T07:47:43.809Z,78.10
2019-01-21T07:50:16.910Z,79.27
2019-01-21T07:52:47.528Z,82.23
2019-01-21T07:55:21.097Z,77.90
2019-01-21T07:58:07.991Z,73.47
2019-01-21T08:00:41.341Z,75.10
2019-01-21T08:03:20.568Z,80.40
2019-01-21T08:05:56.956Z,74.30
2019-01-21T08:08:36.192Z,78.53
2019-01-21T08:11:22.952Z,84.00
2019-01-21T08:13:56.167Z,88.83
2019-01-21T08:16:26.606Z,78.50
2019-01-21T08:19:02.933Z,82.90
2019-01-21T08:21:36.293Z,76.03
2019-01-21T08:24:06.751Z,82.30
2019-01-21T08:26:37.193Z,72.20
2019-01-21T08:29:13.797Z,82.27
2019-01-21T08:31:44.231Z,80.00
2019-01-21T08:34:29.695Z,81.93
2019-01-21T08:37:12.011Z,85.47
2019-01-21T08:39:45.400Z,87.60
2019-01-21T08:42:32.406Z,88.17
2019-01-21T08:45:02.831Z,95.27
2019-01-21T08:50:07.077Z,92.87
2019-01-21T08:52:37.513Z,88.03
2019-01-21T08:55:07.948Z,79.00
2019-01-21T08:57:55.182Z,86.07
2019-01-21T09:00:42.067Z,93.77
2019-01-21T09:03:27.777Z,89.10
2019-01-21T09:06:04.239Z,90.97
2019-01-21T09:08:37.827Z,84.47
2019-01-21T09:11:11.348Z,87.83
2019-01-21T09:13:47.689Z,90.83
2019-01-21T09:16:18.128Z,85.63
2019-01-21T09:18:51.295Z,90.70
2019-01-21T09:21:30.836Z,89.93
2019-01-21T09:24:04.255Z,82.37
2019-01-21T09:26:34.689Z,84.20
2019-01-21T09:29:05.134Z,85.47
2019-01-21T09:31:38.506Z,87.13
2019-01-21T09:34:08.958Z,91.57
2019-01-21T09:36:42.376Z,87.03
2019-01-21T09:39:18.938Z,91.63
2019-01-21T09:41:55.370Z,85.77
2019-01-21T09:44:37.684Z,85.23
2019-01-21T09:47:06.056Z,95.33
2019-01-21T09:49:34.432Z,92.33
2019-01-21T09:52:05.127Z,91.00
2019-01-21T09:54:34.580Z,90.13
2019-01-21T09:57:03.954Z,91.13
2019-01-21T09:59:33.043Z,94.17
2019-01-21T10:02:02.913Z,88.47
2019-01-21T10:04:35.942Z,90.63
2019-01-21T10:07:09.049Z,85.17
2019-01-21T10:09:39.523Z,89.60
2019-01-21T10:12:19.026Z,89.00
2019-01-21T10:14:49.487Z,90.13
2019-01-21T10:17:19.914Z,80.63
2019-01-21T10:19:52.121Z,89.77
2019-01-21T10:22:25.704Z,80.03
2019-01-21T10:24:56.141Z,90.47
2019-01-21T10:27:26.573Z,83.77
2019-01-21T10:29:57.026Z,89.20
2019-01-21T10:32:30.125Z,85.77
2019-01-21T10:35:03.598Z,87.53
2019-01-21T10:37:42.878Z,87.77
2019-01-21T10:40:25.431Z,82.33
2019-01-21T10:43:01.994Z,88.87
2019-01-21T10:45:44.695Z,87.70
2019-01-21T10:48:20.903Z,88.47
2019-01-21T10:50:51.414Z,88.17
2019-01-21T10:53:21.915Z,83.50
2019-01-21T10:55:55.382Z,83.10
2019-01-21T10:58:25.920Z,85.87
2019-01-21T11:01:13.404Z,85.47
2019-01-21T11:03:43.917Z,86.37
2019-01-21T11:06:14.477Z,91.17
2019-01-21T11:08:44.981Z,89.00
2019-01-21T11:11:18.532Z,89.03
2019-01-21T11:13:52.045Z,80.83
2019-01-21T11:16:31.569Z,82.87
2019-01-21T11:19:21.982Z,87.60
2019-01-21T11:21:50.697Z,91.27
2019-01-21T11:24:21.227Z,82.13
2019-01-21T11:27:04.776Z,85.67
2019-01-21T11:29:41.120Z,88.27
2019-01-21T11:32:11.560Z,86.50
2019-01-21T11:34:42.096Z,89.33
2019-01-21T11:37:21.379Z,79.80
2019-01-21T11:39:51.910Z,87.57
2019-01-21T11:42:28.531Z,86.83
2019-01-21T11:45:18.828Z,80.80
2019-01-21T11:47:47.907Z,78.57
2019-01-21T11:50:33.493Z,82.07
2019-01-21T11:53:10.055Z,80.30
2019-01-21T11:55:40.525Z,81.20
2019-01-21T11:58:19.895Z,78.10
2019-01-21T12:01:02.534Z,77.80
2019-01-21T12:03:48.099Z,77.43
2019-01-21T12:06:18.187Z,75.87
2019-01-21T12:08:51.301Z,80.60
2019-01-21T12:11:24.689Z,77.57
2019-01-21T12:14:11.877Z,78.67
2019-01-21T12:16:49.321Z,73.87
2019-01-21T12:19:34.972Z,74.77
2019-01-21T12:22:05.456Z,82.30
2019-01-21T12:24:34.530Z,78.57
2019-01-21T12:27:21.580Z,80.53
2019-01-21T12:29:54.741Z,76.30
2019-01-21T12:32:25.218Z,78.63
2019-01-21T12:34:58.583Z,76.80
2019-01-21T12:37:29.047Z,77.80
2019-01-21T12:39:59.481Z,87.17
2019-01-21T12:42:29.940Z,77.80
2019-01-21T12:45:00.414Z,80.93
2019-01-21T12:47:39.940Z,82.77
2019-01-21T12:50:27.052Z,85.70
2019-01-21T12:53:06.613Z,85.80
2019-01-21T12:55:39.723Z,84.77
2019-01-21T12:58:26.759Z,89.23
2019-01-21T13:00:58.723Z,92.63
2019-01-21T13:03:34.923Z,88.87
2019-01-21T13:06:21.936Z,85.07
2019-01-21T13:09:04.210Z,81.30
2019-01-21T13:11:42.324Z,84.37
2019-01-21T13:14:12.783Z,82.23
2019-01-21T13:16:44.325Z,80.97
2019-01-21T13:19:26.828Z,85.43
2019-01-21T13:22:05.954Z,83.93
2019-01-21T13:24:52.871Z,84.60
2019-01-21T13:27:23.310Z,82.43
2019-01-21T13:29:53.292Z,86.10
2019-01-21T13:32:23.756Z,80.20
2019-01-21T13:35:03.248Z,83.53
2019-01-21T13:37:33.777Z,83.07
2019-01-21T13:40:07.140Z,85.13
2019-01-21T13:42:37.600Z,82.27
2019-01-21T13:45:08.022Z,82.60
2019-01-21T13:47:50.700Z,84.67
2019-01-21T13:50:23.849Z,89.53
2019-01-21T13:52:54.276Z,84.03
2019-01-21T13:55:24.698Z,83.17
2019-01-21T13:57:55.235Z,89.13
2019-01-21T14:00:25.664Z,84.90
2019-01-21T14:02:56.288Z,83.27
2019-01-21T14:05:32.409Z,86.17
2019-01-21T14:08:17.844Z,81.03
2019-01-21T14:10:51.117Z,84.03
2019-01-21T14:13:26.414Z,83.30
2019-01-21T14:15:56.654Z,82.13
2019-01-21T14:18:27.125Z,89.70
2019-01-21T14:20:57.627Z,85.60
2019-01-21T14:23:28.089Z,86.13
2019-01-21T14:25:58.516Z,89.70
2019-01-21T14:28:29.051Z,83.03
2019-01-21T14:31:14.529Z,86.60
2019-01-21T14:33:47.775Z,79.80
2019-01-21T14:36:18.208Z,86.77
2019-01-21T14:38:48.648Z,81.53
2019-01-21T14:41:19.079Z,77.17
2019-01-21T14:43:49.514Z,75.97
2019-01-21T14:46:20.957Z,79.70
2019-01-21T14:48:51.380Z,78.77
2019-01-21T14:51:21.815Z,79.73
2019-01-21T14:53:53.432Z,82.10
2019-01-21T14:56:32.703Z,73.80
2019-01-21T14:59:15.142Z,74.50
2019-01-21T15:01:54.551Z,79.70
2019-01-21T15:04:28.188Z,83.57
2019-01-21T15:07:04.517Z,88.03
2019-01-21T15:09:40.889Z,80.90
2019-01-21T15:12:11.474Z,87.03
2019-01-21T15:14:54.129Z,80.77
2019-01-21T15:17:30.467Z,79.67
2019-01-21T15:19:59.346Z,78.60
2019-01-21T15:22:38.577Z,79.40
2019-01-21T15:25:15.098Z,87.40
2019-01-21T15:27:48.208Z,80.50
2019-01-21T15:30:21.401Z,79.23
2019-01-21T15:32:51.894Z,80.07
2019-01-21T15:35:25.280Z,87.97
2019-01-21T15:37:55.832Z,80.57
2019-01-21T15:40:26.338Z,76.83
2019-01-21T15:42:56.798Z,80.63
2019-01-21T15:45:27.364Z,81.20
2019-01-21T15:48:06.624Z,79.17
2019-01-21T15:50:55.214Z,78.27
2019-01-21T15:53:25.643Z,84.23
2019-01-21T15:56:05.201Z,88.87
2019-01-21T15:58:50.820Z,94.73
2019-01-21T16:01:23.725Z,88.50
2019-01-21T16:03:56.816Z,84.60
2019-01-21T16:06:27.284Z,91.60
2019-01-21T16:09:02.083Z,92.00
2019-01-21T16:11:32.537Z,92.23
2019-01-21T16:14:01.400Z,90.83
2019-01-21T16:16:31.823Z,84.67
2019-01-21T16:19:02.291Z,80.57
2019-01-21T16:21:38.558Z,84.77
2019-01-21T16:24:14.792Z,83.43
2019-01-21T16:26:46.191Z,86.13
2019-01-21T16:29:22.697Z,89.43
2019-01-21T16:31:52.869Z,89.90
2019-01-21T16:34:26.268Z,89.43
2019-01-21T16:36:56.693Z,90.27
2019-01-21T16:39:43.657Z,89.80
2019-01-21T16:42:14.857Z,85.17
2019-01-21T16:44:44.540Z,81.77
2019-01-21T16:47:13.344Z,90.27
2019-01-21T16:49:42.156Z,81.57
2019-01-21T16:52:10.957Z,86.13
2019-01-21T16:54:39.762Z,87.97
2019-01-21T16:57:08.565Z,79.50
2019-01-21T16:59:37.397Z,80.40
2019-01-21T17:02:06.198Z,87.27
2019-01-21T17:04:35.002Z,89.67
2019-01-21T17:07:03.832Z,81.03
2019-01-21T17:09:32.709Z,80.03
2019-01-21T17:12:01.554Z,68.83
2019-01-21T17:14:30.423Z,73.93
2019-01-21T17:16:59.225Z,81.10
2019-01-21T17:19:28.060Z,76.50
2019-01-21T17:21:56.873Z,73.20
2019-01-21T17:24:25.680Z,73.43
2019-01-21T17:26:54.516Z,76.57
2019-01-21T17:29:23.325Z,74.87
2019-01-21T17:31:52.124Z,80.83
2019-01-21T17:34:20.952Z,76.57
2019-01-21T17:36:49.760Z,73.67
2019-01-21T17:39:19.566Z,75.30
2019-01-21T17:41:48.434Z,71.33
2019-01-21T17:44:17.235Z,74.70
2019-01-21T17:46:46.054Z,76.90
2019-01-21T17:49:14.860Z,83.03
2019-01-21T17:51:43.676Z,83.33
2019-01-21T17:54:12.500Z,79.13
2019-01-21T17:56:41.477Z,77.77
2019-01-21T17:59:10.276Z,69.37
2019-01-21T18:01:39.486Z,86.27
2019-01-21T18:04:08.463Z,80.57
2019-01-21T18:06:37.339Z,98.37
2019-01-21T18:09:07.133Z,89.57
2019-01-21T18:11:41.342Z,81.13
2019-01-21T18:14:08.119Z,84.73
2019-01-21T18:16:36.989Z,85.43
2019-01-21T18:19:05.864Z,84.50
2019-01-21T18:21:40.129Z,88.37
2019-01-21T18:24:06.423Z,82.93
2019-01-21T18:26:35.311Z,79.63
2019-01-21T18:29:04.148Z,85.07
2019-01-21T18:31:32.956Z,82.20
2019-01-21T18:34:01.852Z,83.17
2019-01-21T18:36:30.900Z,85.77
2019-01-21T18:38:59.697Z,81.73
2019-01-21T18:41:28.560Z,79.63
2019-01-21T18:43:57.427Z,87.13
2019-01-21T18:46:26.264Z,90.47
2019-01-21T18:48:55.233Z,89.37
2019-01-21T18:51:24.200Z,86.23
2019-01-21T18:53:53.037Z,86.43
2019-01-21T18:56:21.843Z,85.13
2019-01-21T18:58:50.784Z,81.40
2019-01-21T19:01:19.797Z,82.97
2019-01-21T19:03:48.683Z,83.60
2019-01-21T19:06:20.859Z,88.40
2019-01-21T19:08:51.479Z,90.37
2019-01-21T19:11:23.146Z,81.70
2019-01-21T19:14:13.948Z,89.87
2019-01-21T19:16:43.002Z,87.67
2019-01-21T19:19:16.924Z,78.60
2019-01-21T19:21:45.847Z,85.50
2019-01-21T19:24:14.796Z,81.47
2019-01-21T19:26:43.992Z,82.93
2019-01-21T19:29:13.017Z,83.17
2019-01-21T19:31:41.882Z,93.87
2019-01-21T19:34:10.755Z,96.27
2019-01-21T19:36:39.675Z,97.43
2019-01-21T19:39:08.782Z,91.73
2019-01-21T19:41:42.362Z,96.23
2019-01-21T19:44:11.398Z,100.10
2019-01-21T19:46:44.104Z,92.63
2019-01-21T19:49:11.067Z,100.90
2019-01-21T19:51:40.012Z,94.10
2019-01-21T19:54:08.825Z,96.73
2019-01-21T19:56:37.750Z,100.07
2019-01-21T19:59:06.558Z,92.20
2019-01-21T20:01:35.438Z,97.30
2019-01-21T20:04:04.277Z,95.97
2019-01-21T20:06:33.080Z,95.47
2019-01-21T20:09:02.051Z,98.03
2019-01-21T20:11:34.885Z,85.33
2019-01-21T20:14:03.037Z,93.50
2019-01-21T20:16:31.851Z,98.30
2019-01-21T20:19:00.694Z,98.50
2019-01-21T20:21:30.743Z,93.37
2019-01-21T20:23:59.759Z,92.33
2019-01-21T20:26:28.740Z,102.07
2019-01-21T20:28:57.768Z,96.13
2019-01-21T20:31:30.146Z,89.97
2019-01-21T20:34:00.084Z,90.77
2019-01-21T20:36:29.012Z,87.77
2019-01-21T20:38:57.945Z,92.10
2019-01-21T20:41:26.991Z,93.63
2019-01-21T20:43:56.084Z,93.80
2019-01-21T20:46:25.027Z,87.13
2019-01-21T20:48:54.098Z,90.97
2019-01-21T20:51:23.092Z,93.40
2019-01-21T20:53:52.028Z,93.20
2019-01-21T20:56:21.011Z,84.50
2019-01-21T20:58:49.998Z,87.50
2019-01-21T21:01:19.466Z,92.97
2019-01-21T21:03:49.611Z,89.80
2019-01-21T21:06:18.607Z,91.07
2019-01-21T21:08:47.546Z,96.70
2019-01-21T21:11:16.615Z,83.10
2019-01-21T21:13:45.514Z,82.10
2019-01-21T21:16:14.445Z,87.53
2019-01-21T21:18:43.479Z,87.67
2019-01-21T21:21:12.408Z,93.93
2019-01-21T21:23:41.374Z,99.03
2019-01-21T21:26:10.439Z,88.97
2019-01-21T21:28:39.446Z,90.40
2019-01-21T21:31:08.672Z,81.40
2019-01-21T21:33:37.799Z,84.53
2019-01-21T21:36:06.729Z,87.97
2019-01-21T21:38:35.662Z,87.90
2019-01-21T21:41:06.093Z,92.40
2019-01-21T21:43:35.149Z,87.70
2019-01-21T21:46:04.200Z,100.07
2019-01-21T21:48:33.148Z,85.30
2019-01-21T21:51:02.157Z,88.13
2019-01-21T21:53:31.399Z,87.20
2019-01-21T21:56:00.343Z,93.67
2019-01-21T21:58:29.347Z,89.57
2019-01-21T22:00:58.359Z,96.43
2019-01-21T22:03:27.559Z,89.23
2019-01-21T22:05:56.582Z,91.67
2019-01-21T22:08:26.625Z,87.70
2019-01-21T22:10:55.552Z,95.60
2019-01-21T22:13:24.498Z,97.37
2019-01-21T22:15:53.459Z,94.67
2019-01-21T22:18:22.408Z,94.37
2019-01-21T22:20:51.331Z,95.90
2019-01-21T22:23:20.476Z,98.40
2019-01-21T22:25:49.386Z,96.83
2019-01-21T22:28:18.337Z,95.20
2019-01-21T22:30:47.343Z,102.70
2019-01-21T22:33:16.586Z,92.63
2019-01-21T22:35:45.577Z,89.53
2019-01-21T22:38:14.542Z,90.50
2019-01-21T22:40:43.472Z,87.93
2019-01-21T22:43:12.427Z,93.60
2019-01-21T22:45:41.782Z,101.97
2019-01-21T22:48:10.698Z,92.73
2019-01-21T22:50:39.737Z,101.33
2019-01-21T22:53:08.667Z,97.47
2019-01-21T22:55:37.603Z,95.83
2019-01-21T22:58:06.598Z,95.73
2019-01-21T23:00:44.177Z,93.23
2019-01-21T23:03:13.820Z,91.00
2019-01-21T23:05:42.821Z,96.20
2019-01-21T23:08:11.746Z,97.67
2019-01-21T23:10:40.866Z,95.60
2019-01-21T23:13:09.868Z,92.70
2019-01-21T23:15:38.867Z,91.73
2019-01-21T23:18:07.912Z,92.20
2019-01-21T23:20:36.918Z,88.67
2019-01-21T23:23:06.168Z,93.13
2019-01-21T23:25:36.260Z,91.20
2019-01-21T23:28:05.465Z,95.10
2019-01-21T23:30:35.471Z,90.17
2019-01-21T23:33:05.368Z,90.03
2019-01-21T23:35:34.625Z,86.77
2019-01-21T23:38:03.554Z,88.47
2019-01-21T23:40:32.496Z,88.83
2019-01-21T23:43:01.436Z,89.53
2019-01-21T23:45:30.359Z,86.10
2019-01-21T23:47:59.365Z,87.27
2019-01-21T23:50:28.290Z,92.80
2019-01-21T23:52:58.703Z,92.60
2019-01-21T23:55:27.675Z,91.67
2019-01-21T23:57:56.614Z,97.37
